Time;durP1;ratioP1;P1;durP2;ratioP2;P2;SDS_P1;SDS_P2;PMS_P1;PMS_P2;Temp;Humidity;BMP_temperature;BMP_pressure;BME280_temperature;BME280_humidity;BME280_pressure;Samples;Min_cycle;Max_cycle;Signal;HPM_P1;HPM_P2
2023/02/12 00:00:40;;;;;;;8.18;4.00;;;7.40;99.90;;;;;;4966885;28;20105;-74
2023/02/12 00:03:06;;;;;;;10.18;4.47;;;7.40;99.90;;;;;;4971862;28;20571;-73
2023/02/12 00:05:36;;;;;;;10.07;4.88;;;7.40;99.90;;;;;;4978746;28;20040;-74
2023/02/12 00:08:01;;;;;;;8.77;4.50;;;7.40;99.90;;;;;;5003740;28;20054;-73
2023/02/12 00:10:27;;;;;;;10.98;4.85;;;7.40;99.90;;;;;;4987582;28;20070;-74
2023/02/12 00:12:53;;;;;;;8.85;4.60;;;7.30;99.90;;;;;;4981023;28;20514;-74
2023/02/12 00:15:19;;;;;;;9.43;4.40;;;7.30;99.90;;;;;;4993839;28;20520;-73
2023/02/12 00:17:45;;;;;;;10.55;4.40;;;7.40;99.90;;;;;;4990412;28;20038;-74
2023/02/12 00:20:11;;;;;;;8.70;4.57;;;7.30;99.90;;;;;;4983627;28;20041;-74
2023/02/12 00:22:37;;;;;;;11.00;4.70;;;7.40;99.90;;;;;;4997375;28;20494;-74
2023/02/12 00:25:03;;;;;;;9.93;5.13;;;7.40;99.90;;;;;;4964955;28;20038;-74
2023/02/12 00:27:32;;;;;;;8.23;4.57;;;7.40;99.90;;;;;;4996550;28;20648;-74
2023/02/12 00:29:58;;;;;;;9.13;4.10;;;7.30;99.90;;;;;;4999137;28;20027;-74
2023/02/12 00:32:24;;;;;;;9.38;3.88;;;7.40;99.90;;;;;;4993285;28;20038;-75
2023/02/12 00:34:50;;;;;;;10.07;4.13;;;7.30;99.90;;;;;;4999479;28;20026;-74
2023/02/12 00:37:15;;;;;;;6.13;3.60;;;7.30;99.90;;;;;;4996181;28;20042;-74
2023/02/12 00:39:41;;;;;;;9.02;3.78;;;7.30;99.90;;;;;;4980797;28;20033;-75
2023/02/12 00:42:07;;;;;;;7.78;3.28;;;7.30;99.90;;;;;;4970426;28;20034;-75
2023/02/12 00:44:33;;;;;;;7.10;3.72;;;7.30;99.90;;;;;;4995806;28;20037;-74
2023/02/12 00:47:01;;;;;;;7.57;3.60;;;7.30;99.90;;;;;;4995128;28;20038;-74
2023/02/12 00:49:28;;;;;;;6.63;3.40;;;7.30;99.90;;;;;;4979868;28;20027;-75
2023/02/12 00:51:54;;;;;;;7.53;3.15;;;7.30;99.90;;;;;;4981520;28;20034;-72
2023/02/12 00:54:20;;;;;;;6.28;3.00;;;7.30;99.90;;;;;;4978783;28;20594;-72
2023/02/12 00:56:45;;;;;;;6.57;3.30;;;7.30;99.90;;;;;;4990613;28;20145;-74
2023/02/12 00:59:11;;;;;;;6.53;3.30;;;7.30;99.90;;;;;;4987695;28;20037;-74
2023/02/12 01:01:37;;;;;;;7.47;3.45;;;7.30;99.90;;;;;;4979754;28;20406;-74
2023/02/12 01:04:03;;;;;;;7.30;3.55;;;7.20;99.90;;;;;;4978095;28;20049;-74
2023/02/12 01:06:28;;;;;;;5.60;2.70;;;7.30;99.90;;;;;;4982971;28;20035;-74
2023/02/12 01:08:54;;;;;;;5.47;3.08;;;7.20;99.90;;;;;;4979040;28;20580;-74
2023/02/12 01:11:20;;;;;;;6.95;3.15;;;7.20;99.90;;;;;;5000567;28;20466;-74
2023/02/12 01:13:46;;;;;;;7.85;2.88;;;7.20;99.90;;;;;;4962641;28;20026;-74
2023/02/12 01:16:22;;;;;;;6.00;2.70;;;7.20;99.90;;;;;;4977438;28;20056;-74
2023/02/12 01:18:49;;;;;;;4.38;2.33;;;7.20;99.90;;;;;;4978769;28;20426;-73
2023/02/12 01:21:18;;;;;;;5.80;2.20;;;7.20;99.90;;;;;;4996211;28;20100;-73
2023/02/12 01:23:44;;;;;;;5.50;2.53;;;7.20;99.90;;;;;;4976407;28;20045;-73
2023/02/12 01:26:11;;;;;;;6.38;2.70;;;7.20;99.90;;;;;;4963799;28;20025;-73
2023/02/12 01:28:41;;;;;;;5.55;2.85;;;7.20;99.90;;;;;;4993752;28;20027;-73
2023/02/12 01:31:09;;;;;;;6.40;2.53;;;7.20;99.90;;;;;;4980867;28;20025;-74
2023/02/12 01:33:35;;;;;;;6.82;2.72;;;7.10;99.90;;;;;;4972685;28;20032;-74
2023/02/12 01:36:00;;;;;;;6.20;2.95;;;7.10;99.90;;;;;;4982116;28;20113;-74
2023/02/12 01:38:26;;;;;;;6.97;3.10;;;7.10;99.90;;;;;;4976962;28;20029;-74
2023/02/12 01:40:52;;;;;;;5.63;2.88;;;7.20;99.90;;;;;;4979208;28;20026;-74
2023/02/12 01:43:17;;;;;;;7.95;3.78;;;7.10;99.90;;;;;;4978595;28;20097;-74
2023/02/12 01:45:46;;;;;;;9.25;3.95;;;7.00;99.90;;;;;;4998575;28;20053;-74
2023/02/12 01:48:15;;;;;;;9.93;3.38;;;7.00;99.90;;;;;;4992402;28;20034;-74
2023/02/12 01:50:42;;;;;;;8.15;4.30;;;7.10;99.90;;;;;;4996438;28;20069;-74
2023/02/12 01:53:09;;;;;;;8.63;3.70;;;7.10;99.90;;;;;;4961153;28;20039;-72
2023/02/12 01:55:34;;;;;;;10.48;4.10;;;7.10;99.90;;;;;;4961315;28;20069;-73
2023/02/12 01:58:01;;;;;;;10.88;4.40;;;7.10;99.90;;;;;;4978238;28;20541;-72
2023/02/12 02:00:26;;;;;;;11.88;4.80;;;7.00;99.90;;;;;;4976364;28;20117;-73
2023/02/12 02:02:58;;;;;;;12.13;4.57;;;7.00;99.90;;;;;;4963740;28;20109;-73
2023/02/12 02:05:37;;;;;;;10.73;4.78;;;7.00;99.90;;;;;;4997953;28;20026;-73
2023/02/12 02:08:02;;;;;;;11.85;5.30;;;7.00;99.90;;;;;;4977670;28;20039;-73
2023/02/12 02:10:29;;;;;;;9.95;4.88;;;7.00;99.90;;;;;;4996210;28;20395;-73
2023/02/12 02:15:44;;;;;;;12.13;5.57;;;7.10;99.90;;;;;;4998417;28;20033;-73
2023/02/12 02:18:16;;;;;;;13.27;5.15;;;7.10;99.90;;;;;;4977795;28;20073;-73
2023/02/12 02:21:05;;;;;;;14.13;5.72;;;7.10;99.90;;;;;;4976198;28;20544;-73
2023/02/12 02:23:40;;;;;;;14.63;5.97;;;7.10;99.90;;;;;;4976686;28;20069;-73
2023/02/12 02:26:27;;;;;;;12.57;5.75;;;7.10;99.90;;;;;;4977874;28;20498;-73
2023/02/12 02:29:30;;;;;;;17.38;5.68;;;7.10;99.90;;;;;;4975387;28;20046;-73
2023/02/12 02:32:14;;;;;;;10.32;4.90;;;7.10;99.90;;;;;;4974458;28;20121;-73
2023/02/12 02:34:55;;;;;;;12.73;5.55;;;7.10;99.90;;;;;;4978059;28;20116;-73
2023/02/12 02:37:28;;;;;;;10.18;4.95;;;7.10;99.90;;;;;;4975075;28;20398;-73
2023/02/12 02:40:03;;;;;;;11.40;5.18;;;7.10;99.90;;;;;;4975787;28;20026;-73
2023/02/12 02:42:47;;;;;;;12.45;5.10;;;7.10;99.90;;;;;;4971865;28;20037;-73
2023/02/12 02:45:29;;;;;;;10.68;5.03;;;7.10;99.90;;;;;;4996141;28;20105;-74
2023/02/12 02:48:01;;;;;;;13.68;5.22;;;7.10;99.90;;;;;;4994886;28;20033;-74
2023/02/12 02:50:29;;;;;;;11.35;4.65;;;7.10;99.90;;;;;;4992335;28;20042;-73
2023/02/12 02:53:12;;;;;;;10.82;4.53;;;7.10;99.90;;;;;;4976628;28;20044;-73
2023/02/12 02:55:48;;;;;;;13.23;5.75;;;7.10;99.90;;;;;;4978753;28;20117;-73
2023/02/12 02:58:25;;;;;;;13.38;5.45;;;7.20;99.90;;;;;;4981660;28;20495;-73
2023/02/12 03:00:59;;;;;;;10.88;4.38;;;7.20;99.90;;;;;;4977393;28;20061;-73
2023/02/12 03:04:20;;;;;;;10.73;4.50;;;7.20;99.90;;;;;;4977648;28;20038;-72
2023/02/12 03:07:10;;;;;;;10.85;4.10;;;7.20;99.90;;;;;;4953576;28;20121;-72
2023/02/12 03:09:37;;;;;;;9.07;4.10;;;7.10;99.90;;;;;;4980807;28;20080;-73
2023/02/12 03:12:09;;;;;;;11.60;4.40;;;7.10;99.90;;;;;;4995031;28;20030;-73
2023/02/12 03:14:41;;;;;;;14.50;4.80;;;7.10;99.90;;;;;;4981821;28;20038;-73
2023/02/12 03:17:19;;;;;;;11.30;5.18;;;7.10;99.90;;;;;;4997540;28;20041;-73
2023/02/12 03:19:54;;;;;;;12.50;4.82;;;7.10;99.90;;;;;;4999847;28;20101;-74
2023/02/12 03:22:30;;;;;;;12.05;4.57;;;7.20;99.90;;;;;;4979853;28;20029;-74
2023/02/12 03:25:08;;;;;;;10.05;4.28;;;7.20;99.90;;;;;;4998184;28;20088;-74
2023/02/12 03:27:41;;;;;;;10.80;4.18;;;7.10;99.90;;;;;;4981086;28;20027;-73
2023/02/12 03:30:07;;;;;;;8.38;3.97;;;7.10;99.90;;;;;;4988946;28;20149;-74
2023/02/12 03:33:00;;;;;;;10.10;3.70;;;7.10;99.90;;;;;;4998161;28;20038;-73
2023/02/12 03:35:33;;;;;;;8.43;3.38;;;7.10;99.90;;;;;;4980907;28;20038;-74
2023/02/12 03:38:25;;;;;;;7.07;3.03;;;7.10;99.90;;;;;;4984727;28;20045;-74
2023/02/12 03:40:57;;;;;;;;;;;7.10;99.90;;;;;;4997940;28;20096;-73
2023/02/12 03:43:40;;;;;;;8.85;3.45;;;7.10;99.90;;;;;;4998986;28;19918;-74
2023/02/12 03:46:38;;;;;;;8.02;3.22;;;7.10;99.90;;;;;;4978289;28;20514;-74
2023/02/12 03:49:19;;;;;;;8.07;3.67;;;7.10;99.90;;;;;;4967117;28;20046;-75
2023/02/12 03:51:45;;;;;;;7.97;3.35;;;7.10;99.90;;;;;;4982026;28;20030;-74
2023/02/12 03:54:15;;;;;;;8.68;3.83;;;7.00;99.90;;;;;;4980875;28;20041;-73
2023/02/12 03:56:52;;;;;;;9.68;3.25;;;7.00;99.90;;;;;;4981630;28;20515;-74
2023/02/12 03:59:20;;;;;;;10.00;3.30;;;7.00;99.90;;;;;;4980637;28;20503;-74
2023/02/12 04:01:50;;;;;;;9.18;3.70;;;7.00;99.90;;;;;;4995353;28;20029;-74
2023/02/12 04:04:16;;;;;;;6.90;2.92;;;7.00;99.90;;;;;;4997446;28;20018;-74
2023/02/12 04:06:44;;;;;;;7.63;3.17;;;7.00;99.90;;;;;;4980725;28;20064;-74
2023/02/12 04:09:11;;;;;;;8.40;3.70;;;7.10;99.90;;;;;;4999257;28;20026;-73
2023/02/12 04:12:19;;;;;;;7.82;3.42;;;7.00;99.90;;;;;;4967106;28;20034;-73
2023/02/12 04:14:51;;;;;;;9.23;3.65;;;7.10;99.90;;;;;;4998678;28;20045;-74
2023/02/12 04:17:45;;;;;;;7.05;3.30;;;7.10;99.90;;;;;;4980826;28;20449;-75
2023/02/12 04:20:40;;;;;;;7.93;3.35;;;7.10;99.90;;;;;;4998609;28;20038;-74
2023/02/12 04:23:28;;;;;;;7.45;3.63;;;7.10;99.90;;;;;;4980980;28;20046;-74
2023/02/12 04:26:09;;;;;;;7.38;3.63;;;7.10;99.90;;;;;;4972022;28;20038;-74
2023/02/12 04:28:50;;;;;;;;;;;7.20;99.90;;;;;;4996764;28;20022;-74
2023/02/12 04:31:19;;;;;;;10.15;4.03;;;7.20;99.90;;;;;;4977367;28;19925;-74
2023/02/12 04:34:16;;;;;;;8.60;3.75;;;7.20;99.90;;;;;;4982055;28;20490;-74
2023/02/12 04:37:34;;;;;;;9.23;4.07;;;7.20;99.90;;;;;;4978234;28;20033;-74
2023/02/12 04:40:04;;;;;;;11.63;4.18;;;7.20;99.90;;;;;;4919387;29;20055;-73
2023/02/12 04:42:30;;;;;;;9.40;3.97;;;7.20;99.90;;;;;;4907778;29;20579;-75
2023/02/12 04:44:56;;;;;;;17.52;5.35;;;7.20;99.90;;;;;;4907809;29;20048;-74
2023/02/12 04:47:22;;;;;;;17.80;6.20;;;7.20;99.90;;;;;;4909400;29;20028;-74
2023/02/12 04:49:49;;;;;;;20.70;5.75;;;7.20;99.90;;;;;;4926520;29;20522;-74
2023/02/12 04:52:14;;;;;;;13.70;4.82;;;7.20;99.90;;;;;;4910918;29;20524;-74
2023/02/12 04:54:40;;;;;;;15.68;6.00;;;7.20;99.90;;;;;;4926157;29;20039;-74
2023/02/12 04:57:06;;;;;;;19.70;7.10;;;7.20;99.90;;;;;;4924279;29;20340;-74
2023/02/12 04:59:31;;;;;;;17.95;7.63;;;7.20;99.90;;;;;;4908686;29;20043;-74
2023/02/12 05:02:00;;;;;;;23.50;8.77;;;7.20;99.90;;;;;;4907825;29;20039;-74
2023/02/12 05:04:26;;;;;;;27.42;9.15;;;7.20;99.90;;;;;;4911884;29;20175;-74
2023/02/12 05:06:51;;;;;;;26.13;8.52;;;7.20;99.90;;;;;;4908314;29;20563;-74
2023/02/12 05:09:19;;;;;;;40.97;9.75;;;7.20;99.90;;;;;;4924066;29;20051;-74
2023/02/12 05:11:45;;;;;;;30.45;10.55;;;7.20;99.90;;;;;;4892012;29;20400;-74
2023/02/12 05:14:11;;;;;;;28.95;11.50;;;7.30;99.90;;;;;;4926265;29;20051;-74
2023/02/12 05:16:36;;;;;;;35.78;11.15;;;7.30;99.90;;;;;;4939316;28;20046;-74
2023/02/12 05:19:02;;;;;;;30.38;11.35;;;7.30;99.90;;;;;;5004283;28;20029;-74
2023/02/12 05:21:28;;;;;;;53.95;12.50;;;7.30;99.90;;;;;;4981254;28;20409;-74
2023/02/12 05:23:54;;;;;;;39.95;12.65;;;7.30;99.90;;;;;;4965677;28;20038;-74
2023/02/12 05:26:21;;;;;;;34.28;10.95;;;7.30;99.90;;;;;;4999149;28;20023;-75
2023/02/12 05:28:47;;;;;;;30.08;10.98;;;7.30;99.90;;;;;;4995695;28;20022;-74
2023/02/12 05:31:16;;;;;;;29.48;11.55;;;7.30;99.90;;;;;;4994710;28;20026;-73
2023/02/12 05:33:43;;;;;;;37.10;12.77;;;7.30;99.90;;;;;;4983484;28;20037;-74
2023/02/12 05:36:12;;;;;;;34.70;12.38;;;7.30;99.90;;;;;;4957863;28;20028;-73
2023/02/12 05:38:38;;;;;;;30.27;10.68;;;7.30;99.90;;;;;;4982617;28;20105;-74
2023/02/12 05:41:08;;;;;;;28.13;10.80;;;7.30;99.90;;;;;;4995234;28;20386;-74
2023/02/12 05:43:33;;;;;;;31.02;11.80;;;7.30;99.90;;;;;;4979477;28;20026;-74
2023/02/12 05:46:01;;;;;;;31.40;10.70;;;7.30;99.90;;;;;;4992142;28;20061;-74
2023/02/12 05:48:26;;;;;;;34.30;11.15;;;7.30;99.90;;;;;;4977316;28;20501;-74
2023/02/12 05:50:52;;;;;;;32.03;10.70;;;7.30;99.90;;;;;;4978748;28;20038;-74
2023/02/12 05:53:18;;;;;;;29.63;10.20;;;7.30;99.90;;;;;;4994767;28;20041;-74
2023/02/12 05:55:44;;;;;;;43.78;13.00;;;7.30;99.90;;;;;;4978474;28;20034;-74
2023/02/12 05:58:09;;;;;;;26.85;10.20;;;7.30;99.90;;;;;;4996581;28;20026;-74
2023/02/12 06:00:36;;;;;;;26.70;9.43;;;7.30;99.90;;;;;;4977913;28;20040;-74
2023/02/12 06:03:01;;;;;;;31.08;10.32;;;7.30;99.90;;;;;;4979955;28;20118;-73
2023/02/12 06:05:27;;;;;;;28.63;10.10;;;7.30;99.90;;;;;;4998523;28;20596;-74
2023/02/12 06:07:53;;;;;;;31.10;10.15;;;7.30;99.90;;;;;;4981150;28;20041;-75
2023/02/12 06:10:19;;;;;;;40.50;11.27;;;7.30;99.90;;;;;;4978452;28;20089;-74
2023/02/12 06:12:44;;;;;;;24.15;9.13;;;7.30;99.90;;;;;;4994674;28;20038;-74
2023/02/12 06:15:10;;;;;;;33.20;10.35;;;7.30;99.90;;;;;;4996857;28;20042;-74
2023/02/12 06:17:36;;;;;;;37.60;9.75;;;7.30;99.90;;;;;;4994004;28;20597;-74
2023/02/12 06:20:02;;;;;;;27.88;10.32;;;7.30;99.90;;;;;;4993097;28;20030;-74
2023/02/12 06:22:28;;;;;;;26.58;10.30;;;7.30;99.90;;;;;;4980866;28;20045;-74
2023/02/12 06:24:53;;;;;;;26.98;9.82;;;7.30;99.90;;;;;;4998114;28;20457;-74
2023/02/12 06:27:19;;;;;;;47.38;10.70;;;7.30;99.90;;;;;;4994445;28;20034;-74
2023/02/12 06:29:45;;;;;;;64.65;11.38;;;7.30;99.90;;;;;;4960702;28;20031;-74
2023/02/12 06:32:12;;;;;;;29.95;11.63;;;7.30;99.90;;;;;;4991840;28;20033;-73
2023/02/12 06:34:39;;;;;;;30.77;10.38;;;7.30;99.90;;;;;;4997593;28;20524;-74
2023/02/12 06:37:05;;;;;;;26.52;9.90;;;7.30;99.90;;;;;;4963248;28;20034;-74
2023/02/12 06:39:31;;;;;;;29.80;9.88;;;7.30;99.90;;;;;;4980419;28;20447;-74
2023/02/12 06:41:56;;;;;;;42.60;10.73;;;7.40;99.90;;;;;;4977548;28;20104;-74
2023/02/12 06:44:22;;;;;;;32.20;11.13;;;7.30;99.90;;;;;;4995177;28;20043;-74
2023/02/12 06:46:48;;;;;;;39.22;10.38;;;7.40;99.90;;;;;;4977684;28;20136;-73
2023/02/12 06:49:13;;;;;;;29.02;10.93;;;7.40;99.90;;;;;;4996591;28;20570;-73
2023/02/12 06:51:40;;;;;;;31.45;11.27;;;7.30;99.90;;;;;;4979422;28;20058;-73
2023/02/12 06:54:15;;;;;;;30.77;10.77;;;7.40;99.90;;;;;;4977989;28;20083;-73
2023/02/12 06:56:41;;;;;;;36.22;12.18;;;7.40;99.90;;;;;;4996979;28;20046;-73
2023/02/12 06:59:14;;;;;;;43.92;13.63;;;7.40;99.90;;;;;;4976437;28;20474;-73
2023/02/12 07:01:40;;;;;;;45.75;12.93;;;7.40;99.90;;;;;;4975839;28;20061;-73
2023/02/12 07:04:05;;;;;;;39.13;12.18;;;7.40;99.90;;;;;;4995901;28;20070;-74
2023/02/12 07:06:34;;;;;;;43.35;12.02;;;7.40;99.90;;;;;;4978719;28;20627;-72
2023/02/12 07:09:00;;;;;;;41.42;12.38;;;7.40;99.90;;;;;;4981173;28;20026;-72
2023/02/12 07:11:28;;;;;;;56.65;12.45;;;7.40;99.90;;;;;;4976460;28;20032;-73
2023/02/12 07:13:55;;;;;;;47.33;11.43;;;7.40;99.90;;;;;;4975569;28;20405;-74
2023/02/12 07:16:21;;;;;;;50.40;12.63;;;7.40;99.90;;;;;;4973056;28;20031;-74
2023/02/12 07:18:47;;;;;;;70.28;13.48;;;7.40;99.90;;;;;;4963951;28;20502;-73
2023/02/12 07:21:15;;;;;;;40.10;12.50;;;7.40;99.90;;;;;;4995155;28;20033;-72
2023/02/12 07:23:41;;;;;;;36.13;11.55;;;7.40;99.90;;;;;;4998351;28;20030;-73
2023/02/12 07:26:11;;;;;;;49.88;13.40;;;7.40;99.90;;;;;;4974207;28;20105;-73
2023/02/12 07:28:38;;;;;;;62.25;14.23;;;7.40;99.90;;;;;;4962261;28;20050;-72
2023/02/12 07:31:11;;;;;;;55.85;13.32;;;7.40;99.90;;;;;;4975594;28;20080;-73
2023/02/12 07:33:38;;;;;;;49.92;12.43;;;7.40;99.90;;;;;;4978586;28;20037;-73
2023/02/12 07:36:06;;;;;;;37.38;11.48;;;7.50;99.90;;;;;;4961448;28;20036;-74
2023/02/12 07:38:34;;;;;;;51.05;14.27;;;7.50;99.90;;;;;;4995132;28;20050;-74
2023/02/12 07:41:12;;;;;;;44.65;14.50;;;7.50;99.90;;;;;;4980224;28;20065;-74
2023/02/12 07:43:39;;;;;;;44.80;13.13;;;7.50;99.90;;;;;;4972197;28;20565;-74
2023/02/12 07:46:17;;;;;;;50.10;15.00;;;7.50;99.90;;;;;;4976227;28;20393;-73
2023/02/12 07:48:44;;;;;;;42.47;14.68;;;7.50;99.90;;;;;;4977508;28;20018;-74
2023/02/12 07:51:13;;;;;;;41.58;14.18;;;7.50;99.90;;;;;;4987642;28;20030;-73
2023/02/12 07:53:39;;;;;;;37.60;13.10;;;7.50;99.90;;;;;;4998532;28;20015;-74
2023/02/12 07:56:16;;;;;;;46.35;14.75;;;7.60;99.90;;;;;;5003166;28;20037;-73
2023/02/12 07:58:44;;;;;;;56.00;15.55;;;7.60;99.90;;;;;;4980962;28;20026;-74
2023/02/12 08:01:22;;;;;;;39.30;15.48;;;7.60;99.90;;;;;;4975568;28;20521;-74
2023/02/12 08:03:49;;;;;;;38.20;13.82;;;7.60;99.90;;;;;;4979049;28;20037;-74
2023/02/12 08:06:25;;;;;;;42.10;14.50;;;7.60;99.90;;;;;;4981030;28;20449;-74
2023/02/12 08:08:55;;;;;;;47.20;15.30;;;7.60;99.90;;;;;;4970154;28;20137;-74
2023/02/12 08:11:21;;;;;;;43.60;14.50;;;7.60;99.90;;;;;;4965830;28;20705;-73
2023/02/12 08:13:50;;;;;;;39.03;14.70;;;7.60;99.90;;;;;;4995303;28;20537;-74
2023/02/12 08:16:19;;;;;;;43.88;14.93;;;7.60;99.90;;;;;;4995569;28;20041;-74
2023/02/12 08:18:45;;;;;;;45.75;15.70;;;7.60;99.90;;;;;;4987122;28;20029;-74
2023/02/12 08:21:15;;;;;;;52.92;16.25;;;7.60;99.90;;;;;;4987822;28;20076;-73
2023/02/12 08:23:41;;;;;;;52.42;17.58;;;7.60;99.90;;;;;;4970055;28;20023;-73
2023/02/12 08:26:12;;;;;;;43.53;15.55;;;7.70;99.90;;;;;;4941073;28;21216;-74
2023/02/12 08:28:44;;;;;;;38.90;15.65;;;7.70;99.90;;;;;;4969684;28;20452;-73
2023/02/12 08:31:13;;;;;;;47.40;15.20;;;7.70;99.90;;;;;;4968615;28;20537;-73
2023/02/12 08:33:39;;;;;;;39.38;15.75;;;7.80;99.90;;;;;;4981687;28;20441;-74
2023/02/12 08:36:14;;;;;;;48.80;17.67;;;7.80;99.90;;;;;;4994885;28;20036;-74
2023/02/12 08:38:40;;;;;;;41.75;15.52;;;7.80;99.90;;;;;;4979093;28;20037;-74
2023/02/12 08:41:12;;;;;;;39.13;14.80;;;7.80;99.90;;;;;;4998389;28;20148;-74
2023/02/12 08:43:39;;;;;;;44.65;17.83;;;7.80;99.90;;;;;;4980063;28;20026;-74
2023/02/12 08:46:09;;;;;;;43.05;16.30;;;7.80;99.90;;;;;;4979585;28;20033;-74
2023/02/12 08:48:38;;;;;;;46.08;16.35;;;7.80;99.90;;;;;;4979599;28;20032;-73
2023/02/12 08:51:10;;;;;;;46.42;16.42;;;7.90;99.90;;;;;;4973093;28;20026;-73
2023/02/12 08:53:38;;;;;;;47.55;18.50;;;7.80;99.90;;;;;;4996021;28;20044;-74
2023/02/12 08:56:05;;;;;;;47.22;16.20;;;7.90;99.90;;;;;;4980516;28;20034;-74
2023/02/12 08:58:31;;;;;;;40.47;16.40;;;7.90;99.90;;;;;;4965260;28;20381;-73
2023/02/12 09:00:56;;;;;;;47.08;16.80;;;7.90;99.90;;;;;;4981201;28;20409;-74
2023/02/12 09:03:22;;;;;;;43.88;17.00;;;7.90;99.90;;;;;;4993756;28;20029;-74
2023/02/12 09:05:48;;;;;;;47.55;19.13;;;7.90;99.90;;;;;;4979836;28;20072;-73
2023/02/12 09:08:14;;;;;;;40.67;16.27;;;7.90;99.90;;;;;;4981736;28;20396;-73
2023/02/12 09:10:42;;;;;;;42.83;16.88;;;7.90;99.90;;;;;;4980500;28;20045;-74
2023/02/12 09:13:09;;;;;;;45.10;16.30;;;7.90;99.90;;;;;;4992699;28;20034;-74
2023/02/12 09:15:37;;;;;;;36.95;15.75;;;8.00;99.90;;;;;;4979551;28;20645;-74
2023/02/12 09:18:03;;;;;;;38.13;16.63;;;8.00;99.90;;;;;;4979389;28;20125;-73
2023/02/12 09:20:30;;;;;;;37.28;15.02;;;8.00;99.90;;;;;;5000345;28;20410;-73
2023/02/12 09:22:57;;;;;;;36.33;14.77;;;8.00;99.90;;;;;;4995545;28;20646;-74
2023/02/12 09:25:23;;;;;;;41.22;16.35;;;8.10;99.90;;;;;;4976778;28;20394;-74
2023/02/12 09:27:49;;;;;;;39.55;16.20;;;8.00;99.90;;;;;;4991303;28;20080;-75
2023/02/12 09:30:15;;;;;;;38.30;15.25;;;8.00;99.90;;;;;;4975586;28;20068;-74
2023/02/12 09:32:41;;;;;;;41.63;16.00;;;8.10;99.90;;;;;;4997829;28;20041;-74
2023/02/12 09:35:07;;;;;;;42.33;16.92;;;8.10;99.90;;;;;;5000450;28;20485;-74
2023/02/12 09:37:32;;;;;;;44.67;15.98;;;8.10;99.90;;;;;;4974050;28;20042;-74
2023/02/12 09:39:58;;;;;;;44.78;15.40;;;8.10;99.90;;;;;;4998489;28;20034;-74
2023/02/12 09:43:10;;;;;;;37.60;15.82;;;8.10;99.90;;;;;;4996250;28;20050;-73
2023/02/12 09:45:52;;;;;;;38.67;15.60;;;8.10;99.90;;;;;;4929926;29;20028;-73
2023/02/12 09:48:46;;;;;;;38.45;16.05;;;8.10;99.90;;;;;;4997146;28;20522;-73
2023/02/12 09:51:12;;;;;;;40.75;15.95;;;8.10;99.90;;;;;;4998875;28;20054;-73
2023/02/12 09:53:42;;;;;;;48.03;18.70;;;8.20;99.90;;;;;;4976559;28;20030;-75
2023/02/12 09:56:13;;;;;;;41.92;17.58;;;8.20;99.90;;;;;;4977480;28;20088;-74
2023/02/12 09:58:45;;;;;;;36.88;16.17;;;8.20;99.90;;;;;;4993271;28;20509;-75
2023/02/12 10:01:17;;;;;;;35.40;16.02;;;8.20;99.90;;;;;;4972191;28;20398;-74
2023/02/12 10:03:44;;;;;;;38.47;16.42;;;8.20;99.90;;;;;;4978055;28;20022;-74
2023/02/12 10:06:35;;;;;;;32.97;15.15;;;8.20;99.90;;;;;;4994854;28;20072;-75
2023/02/12 10:09:06;;;;;;;36.70;16.38;;;8.20;99.90;;;;;;4993496;28;20119;-74
2023/02/12 10:11:57;;;;;;;33.95;14.23;;;8.30;99.90;;;;;;4989667;28;20057;-75
2023/02/12 10:14:42;;;;;;;37.75;17.23;;;8.30;99.90;;;;;;4994416;28;20041;-74
2023/02/12 10:17:30;;;;;;;38.97;18.00;;;8.30;99.90;;;;;;4968229;28;20142;-74
2023/02/12 10:20:16;;;;;;;36.85;17.05;;;8.20;99.90;;;;;;4983335;28;20030;-74
2023/02/12 10:23:02;;;;;;;46.80;16.45;;;8.20;99.90;;;;;;4982167;28;20070;-74
2023/02/12 10:25:48;;;;;;;36.80;17.05;;;8.20;99.90;;;;;;4997566;28;20031;-74
2023/02/12 10:28:30;;;;;;;35.95;16.85;;;8.20;99.90;;;;;;4995943;28;20033;-74
2023/02/12 10:31:02;;;;;;;37.55;17.27;;;8.20;99.90;;;;;;5004869;28;20112;-75
2023/02/12 10:33:44;;;;;;;41.00;17.40;;;8.20;99.90;;;;;;4976837;28;20170;-75
2023/02/12 10:36:47;;;;;;;39.35;16.45;;;8.10;99.90;;;;;;4998002;28;20068;-75
2023/02/12 10:39:25;;;;;;;40.45;16.58;;;8.20;99.90;;;;;;4964974;28;20149;-75
2023/02/12 10:42:13;;;;;;;39.22;17.40;;;8.20;99.90;;;;;;4977894;28;20390;-75
2023/02/12 10:44:39;;;;;;;36.83;17.35;;;8.20;99.90;;;;;;4978777;28;20045;-74
2023/02/12 10:47:07;;;;;;;31.70;14.82;;;8.20;99.90;;;;;;4979123;28;20122;-74
2023/02/12 10:49:34;;;;;;;35.58;16.60;;;8.20;99.90;;;;;;4980184;28;20030;-73
2023/02/12 10:52:18;;;;;;;34.95;16.33;;;8.10;99.90;;;;;;4993153;28;20022;-75
2023/02/12 10:54:48;;;;;;;32.95;14.05;;;8.20;99.90;;;;;;4973458;28;20081;-76
2023/02/12 10:57:16;;;;;;;34.60;15.02;;;8.20;99.90;;;;;;4969964;28;20394;-76
2023/02/12 10:59:44;;;;;;;31.73;14.25;;;8.20;99.90;;;;;;4973347;28;20519;-77
2023/02/12 11:02:27;;;;;;;25.40;12.85;;;8.30;99.90;;;;;;4991607;28;20088;-76
2023/02/12 11:04:54;;;;;;;22.20;11.50;;;8.30;99.90;;;;;;4988457;28;20027;-76
2023/02/12 11:07:21;;;;;;;26.15;12.68;;;8.30;99.90;;;;;;4978908;28;20049;-75
2023/02/12 11:09:49;;;;;;;24.13;11.30;;;8.30;99.90;;;;;;4958573;28;20026;-75
2023/02/12 11:12:35;;;;;;;27.75;12.90;;;8.30;99.90;;;;;;4979376;28;20058;-75
2023/02/12 11:15:23;;;;;;;25.38;12.52;;;8.40;99.90;;;;;;4992388;28;20038;-75
2023/02/12 11:18:07;;;;;;;23.83;11.55;;;8.40;99.90;;;;;;4979273;28;20084;-76
2023/02/12 11:20:48;;;;;;;26.45;12.10;;;8.40;99.90;;;;;;4961059;28;20040;-76
2023/02/12 11:23:25;;;;;;;;;;;8.50;99.90;;;;;;4989238;28;20049;-76
2023/02/12 11:26:16;;;;;;;26.77;11.68;;;8.50;99.90;;;;;;4979837;28;20286;-75
2023/02/12 11:28:52;;;;;;;27.63;12.65;;;8.50;99.90;;;;;;4970026;28;20044;-76
2023/02/12 11:31:25;;;;;;;26.60;13.05;;;8.50;99.90;;;;;;4962718;28;20033;-76
2023/02/12 11:34:03;;;;;;;33.83;12.80;;;8.50;99.90;;;;;;4997400;28;20514;-76
2023/02/12 11:36:31;;;;;;;34.53;13.65;;;8.50;99.90;;;;;;4995053;28;20026;-76
2023/02/12 11:38:59;;;;;;;35.50;14.63;;;8.40;99.90;;;;;;4999439;28;20037;-75
2023/02/12 11:41:43;;;;;;;30.38;13.25;;;8.50;99.90;;;;;;4978319;28;20108;-76
2023/02/12 11:44:19;;;;;;;33.00;13.45;;;8.50;99.90;;;;;;4998304;28;20113;-75
2023/02/12 11:46:50;;;;;;;36.63;14.05;;;8.40;99.90;;;;;;4994565;28;20089;-75
2023/02/12 11:49:39;;;;;;;30.58;13.20;;;8.40;99.90;;;;;;4992723;28;20510;-76
2023/02/12 11:52:06;;;;;;;28.38;12.05;;;8.40;99.90;;;;;;4977425;28;20088;-74
2023/02/12 11:54:40;;;;;;;29.70;13.00;;;8.40;99.90;;;;;;4979694;28;20041;-75
2023/02/12 11:57:05;;;;;;;27.73;11.68;;;8.40;99.90;;;;;;4981175;28;20494;-75
2023/02/12 11:59:35;;;;;;;28.15;12.32;;;8.40;99.90;;;;;;4999967;28;20030;-75
2023/02/12 12:02:21;;;;;;;29.17;12.70;;;8.40;99.90;;;;;;4995444;28;20092;-76
2023/02/12 12:04:50;;;;;;;28.27;12.38;;;8.40;99.90;;;;;;4978282;28;20021;-75
2023/02/12 12:07:27;;;;;;;30.38;13.02;;;8.50;99.90;;;;;;4998032;28;20101;-76
2023/02/12 12:10:04;;;;;;;28.75;12.52;;;8.50;99.90;;;;;;4984360;28;20188;-75
2023/02/12 12:12:30;;;;;;;28.80;13.23;;;8.40;99.90;;;;;;4982429;28;20061;-75
2023/02/12 12:21:02;;;;;;;30.25;14.27;;;8.40;99.90;;;;;;4999640;28;20106;-75
2023/02/12 12:23:37;;;;;;;30.80;13.50;;;8.40;99.90;;;;;;4964486;28;20037;-75
2023/02/12 12:26:13;;;;;;;26.77;12.32;;;8.40;99.90;;;;;;4974178;28;20387;-76
2023/02/12 12:29:05;;;;;;;29.50;12.70;;;8.40;99.90;;;;;;4966718;28;20232;-75
2023/02/12 12:31:42;;;;;;;30.30;13.30;;;8.50;99.90;;;;;;4985285;28;20034;-76
2023/02/12 12:34:23;;;;;;;25.30;11.43;;;8.50;99.90;;;;;;4960385;28;20057;-77
2023/02/12 12:37:04;;;;;;;21.77;10.23;;;8.50;99.90;;;;;;4970540;28;20027;-76
2023/02/12 12:39:51;;;;;;;24.83;11.75;;;8.60;99.90;;;;;;4956048;28;20026;-76
2023/02/12 12:42:35;;;;;;;20.70;10.52;;;8.50;99.90;;;;;;4999663;28;20034;-75
2023/02/12 12:45:13;;;;;;;22.20;10.45;;;8.50;99.90;;;;;;4979834;28;20030;-76
2023/02/12 12:48:12;;;;;;;18.42;9.73;;;8.50;99.90;;;;;;4997636;28;20057;-76
2023/02/12 12:50:56;;;;;;;17.23;9.32;;;8.50;99.90;;;;;;4981166;28;20109;-75
2023/02/12 12:53:47;;;;;;;1404.00;763.17;;;8.50;99.90;;;;;;4995063;28;20038;-76
2023/02/12 12:56:27;;;;;;;1011.45;630.75;;;8.60;99.90;;;;;;4997115;28;20117;-75
2023/02/12 12:59:26;;;;;;;97.15;51.60;;;8.70;99.90;;;;;;4994830;28;20072;-75
2023/02/12 13:02:31;;;;;;;29.20;18.15;;;8.70;99.90;;;;;;4979677;28;20065;-74
2023/02/12 13:05:02;;;;;;;32.35;17.85;;;8.70;99.90;;;;;;4980281;28;20058;-74
2023/02/12 13:08:03;;;;;;;12.80;7.68;;;8.80;99.90;;;;;;4980929;28;20030;-75
2023/02/12 13:10:56;;;;;;;18.65;7.97;;;8.80;99.90;;;;;;4973740;28;20474;-74
2023/02/12 13:13:36;;;;;;;10.43;5.75;;;8.80;99.90;;;;;;4988418;28;20043;-76
2023/02/12 13:16:18;;;;;;;11.02;6.35;;;8.70;99.90;;;;;;4960971;28;20037;-78
2023/02/12 13:18:54;;;;;;;12.25;6.82;;;8.70;99.90;;;;;;5000024;28;20081;-77